New Harmony, Indiana
Current Conditions -  °F | °C
As of 7:35 PM on Friday 19 Dec 2014 (Local Time) from KCUL Reporting Station
Clear Clear  
Wind Chill: 34°   Ceiling: Unl
Heat Index: 34°   Visibility: 10mi
Dew Point: 30°   Wind: 3mph
Humidity: 85%   Direction: 90°E
Pressure: 30.28"   Gusts: NA
Location:  38.13°N, 87.94°W
Report Text: KCUL 200135Z AUTO 09003KT 10SM CLR 01/M01 A3028 RMK AO2 T00121010
Loading
Personal Weather Stations






























Interactive Weather Map New forecast layout! Learn more

10-Day Weather Forecast

Advertisements
Track Severe Weather on mobile